Time;durP1;ratioP1;P1;durP2;ratioP2;P2;SDS_P1;SDS_P2;PMS_P1;PMS_P2;Temp;Humidity;BMP_temperature;BMP_pressure;BME280_temperature;BME280_humidity;BME280_pressure;Samples;Min_cycle;Max_cycle;Signal;HPM_P1;HPM_P2
2021/03/30 00:02:08;;;;;;;8.40;4.87;;;12.40;99.90;;;;;;5037276;28;20485;-83
2021/03/30 00:04:34;;;;;;;6.60;4.80;;;12.40;99.90;;;;;;5036710;28;20821;-83
2021/03/30 00:07:01;;;;;;;5.57;4.50;;;12.30;99.90;;;;;;5019453;28;20447;-84
2021/03/30 00:09:27;;;;;;;8.77;4.70;;;12.50;99.90;;;;;;5038202;28;20446;-84
2021/03/30 00:11:53;;;;;;;6.20;4.60;;;12.20;99.90;;;;;;5038497;28;21030;-84
2021/03/30 00:14:19;;;;;;;6.23;4.20;;;12.20;99.90;;;;;;5038585;28;20830;-84
2021/03/30 00:16:45;;;;;;;7.90;4.90;;;12.20;99.90;;;;;;5037997;28;20477;-84
2021/03/30 00:19:12;;;;;;;6.40;3.87;;;12.20;99.90;;;;;;5040001;28;20450;-84
2021/03/30 00:21:39;;;;;;;5.73;3.97;;;12.10;99.90;;;;;;5044915;28;20493;-85
2021/03/30 00:24:08;;;;;;;4.87;4.37;;;12.00;99.90;;;;;;5045202;28;20450;-84
2021/03/30 00:26:35;;;;;;;4.87;3.80;;;12.00;99.90;;;;;;5044490;28;20507;-84
2021/03/30 00:29:02;;;;;;;4.53;4.13;;;11.90;99.90;;;;;;5045231;28;20524;-84
2021/03/30 00:31:28;;;;;;;5.80;4.60;;;11.90;99.90;;;;;;5051420;28;20496;-84
2021/03/30 00:33:54;;;;;;;6.43;5.00;;;11.80;99.90;;;;;;5060904;28;20442;-84
2021/03/30 00:36:21;;;;;;;8.80;5.10;;;11.80;99.90;;;;;;5061362;28;20446;-84
2021/03/30 00:38:47;;;;;;;9.77;4.10;;;11.80;99.90;;;;;;5061399;28;20446;-83
2021/03/30 00:41:13;;;;;;;8.43;5.07;;;12.00;99.90;;;;;;5060642;28;20450;-83
2021/03/30 00:43:39;;;;;;;6.70;4.47;;;11.70;99.90;;;;;;5061581;28;20447;-84
2021/03/30 00:46:14;;;;;;;6.13;4.40;;;11.70;99.90;;;;;;5061733;28;20441;-82
2021/03/30 00:48:41;;;;;;;5.37;4.43;;;11.70;99.90;;;;;;5061651;28;20473;-83
2021/03/30 00:51:08;;;;;;;5.87;4.30;;;11.70;99.90;;;;;;5061956;28;20425;-84
2021/03/30 00:53:35;;;;;;;5.70;4.93;;;11.70;99.90;;;;;;5056948;28;20450;-84
2021/03/30 00:56:02;;;;;;;7.50;4.53;;;11.90;99.90;;;;;;5045521;28;20453;-83
2021/03/30 00:58:28;;;;;;;5.23;4.10;;;11.70;99.90;;;;;;5045890;28;20843;-84
2021/03/30 01:00:55;;;;;;;6.00;4.47;;;11.70;99.90;;;;;;5047753;28;20470;-84
2021/03/30 01:03:21;;;;;;;7.30;4.20;;;11.70;99.90;;;;;;5050888;28;20450;-83
2021/03/30 01:05:47;;;;;;;9.27;4.50;;;11.60;99.90;;;;;;5056497;28;20449;-82
2021/03/30 01:08:43;;;;;;;5.13;4.00;;;11.60;99.90;;;;;;5053180;28;20456;-84
2021/03/30 01:11:22;;;;;;;5.23;3.90;;;11.60;99.90;;;;;;5052416;28;20466;-83
2021/03/30 01:13:59;;;;;;;10.70;4.53;;;11.50;99.90;;;;;;5047046;28;20435;-85
2021/03/30 01:16:32;;;;;;;5.97;4.43;;;11.50;99.90;;;;;;5043857;28;20943;-84
2021/03/30 01:19:02;;;;;;;4.50;3.60;;;11.40;99.90;;;;;;5042488;28;20423;-83
2021/03/30 01:21:49;;;;;;;6.13;4.40;;;11.40;99.90;;;;;;5044006;28;20466;-83
2021/03/30 01:24:23;;;;;;;5.30;4.40;;;11.50;99.90;;;;;;5054380;28;20411;-83
2021/03/30 01:26:55;;;;;;;11.10;5.03;;;11.50;99.90;;;;;;5055122;28;20430;-84
2021/03/30 01:29:41;;;;;;;9.73;4.60;;;11.40;99.90;;;;;;5047114;28;20473;-83
2021/03/30 01:32:15;;;;;;;10.10;4.17;;;11.40;99.90;;;;;;5087292;23;20501;-84
2021/03/30 01:34:45;;;;;;;6.40;4.43;;;11.30;99.90;;;;;;5069684;28;20432;-84
2021/03/30 01:37:13;;;;;;;7.07;4.87;;;11.40;99.90;;;;;;5071067;28;20511;-83
2021/03/30 01:39:41;;;;;;;12.27;5.43;;;11.30;99.90;;;;;;5069606;28;20500;-84
2021/03/30 01:42:09;;;;;;;6.00;4.43;;;11.30;99.90;;;;;;5069434;28;20461;-84
2021/03/30 01:44:39;;;;;;;5.67;4.80;;;11.30;99.90;;;;;;5054116;28;20442;-84
2021/03/30 01:47:06;;;;;;;6.07;4.50;;;11.30;99.90;;;;;;5068789;28;20441;-84
2021/03/30 01:49:35;;;;;;;4.90;4.40;;;11.30;99.90;;;;;;5069883;28;20445;-84
2021/03/30 01:52:01;;;;;;;9.80;4.70;;;11.40;99.90;;;;;;5070682;28;20512;-84
2021/03/30 01:54:28;;;;;;;5.67;4.10;;;11.40;99.90;;;;;;5070050;28;20449;-84
2021/03/30 01:56:56;;;;;;;8.10;4.67;;;11.30;99.90;;;;;;5068751;28;20503;-84
2021/03/30 01:59:24;;;;;;;7.73;4.80;;;10.70;99.90;;;;;;5067724;28;20500;-83
2021/03/30 02:01:53;;;;;;;10.30;5.00;;;11.20;99.90;;;;;;5068763;28;20444;-84
2021/03/30 02:04:21;;;;;;;10.60;5.87;;;11.20;99.90;;;;;;5050158;28;20416;-84
2021/03/30 02:06:49;;;;;;;6.60;4.60;;;11.00;99.90;;;;;;5068802;28;20457;-83
2021/03/30 02:09:21;;;;;;;11.40;4.30;;;10.80;99.90;;;;;;5068713;28;20481;-84
2021/03/30 02:11:50;;;;;;;6.77;4.63;;;10.80;99.90;;;;;;5066561;28;20461;-83
2021/03/30 02:14:17;;;;;;;6.13;4.07;;;10.80;99.90;;;;;;5066503;28;20449;-84
2021/03/30 02:16:49;;;;;;;7.40;5.30;;;10.80;99.90;;;;;;5066750;28;20421;-83
2021/03/30 02:19:20;;;;;;;6.80;4.70;;;10.80;99.90;;;;;;5066023;28;20400;-84
2021/03/30 02:21:52;;;;;;;6.23;4.67;;;10.80;99.90;;;;;;5065631;28;20493;-84
2021/03/30 02:24:20;;;;;;;7.50;5.30;;;10.80;99.90;;;;;;5065322;28;20912;-83
2021/03/30 02:26:50;;;;;;;8.63;5.03;;;10.80;99.90;;;;;;5063800;28;20503;-83
2021/03/30 02:29:20;;;;;;;7.07;4.60;;;10.90;99.90;;;;;;5063690;28;21026;-83
2021/03/30 02:31:49;;;;;;;6.80;4.93;;;10.90;99.90;;;;;;5062515;28;20481;-84
2021/03/30 02:34:17;;;;;;;8.80;5.23;;;10.80;99.90;;;;;;5063282;28;20507;-84
2021/03/30 02:36:45;;;;;;;9.30;4.83;;;10.80;99.90;;;;;;5064044;28;20442;-84
2021/03/30 02:39:13;;;;;;;7.03;5.10;;;10.80;99.90;;;;;;5065639;28;20442;-83
2021/03/30 02:41:42;;;;;;;12.07;5.40;;;10.80;99.90;;;;;;5064971;28;20477;-83
2021/03/30 02:44:11;;;;;;;9.70;5.70;;;10.70;99.90;;;;;;5065524;28;20825;-84
2021/03/30 02:46:39;;;;;;;8.77;5.40;;;10.70;99.90;;;;;;5065980;28;20434;-84
2021/03/30 02:49:05;;;;;;;10.87;5.93;;;10.60;99.90;;;;;;5068994;28;20489;-84
2021/03/30 02:51:34;;;;;;;7.30;4.80;;;10.60;99.90;;;;;;5070490;28;20476;-83
2021/03/30 02:54:01;;;;;;;8.10;5.50;;;10.60;99.90;;;;;;5065670;28;20457;-84
2021/03/30 02:56:27;;;;;;;9.27;4.50;;;10.60;99.90;;;;;;5065615;28;20453;-84
2021/03/30 02:58:55;;;;;;;6.43;4.40;;;10.60;99.90;;;;;;5065630;28;20421;-85
2021/03/30 03:01:23;;;;;;;8.63;5.03;;;10.60;99.90;;;;;;5065060;28;21000;-84
2021/03/30 03:03:50;;;;;;;7.10;6.40;;;10.50;99.90;;;;;;5070958;28;20446;-83
2021/03/30 03:06:17;;;;;;;11.10;6.03;;;10.50;99.90;;;;;;5075093;28;20500;-83
2021/03/30 03:08:45;;;;;;;13.03;5.13;;;10.50;99.90;;;;;;5074652;28;20467;-83
2021/03/30 03:11:13;;;;;;;8.77;5.00;;;10.40;99.90;;;;;;5075569;28;20434;-82
2021/03/30 03:13:42;;;;;;;7.93;4.70;;;10.30;99.90;;;;;;5073586;28;20210;-84
2021/03/30 03:16:10;;;;;;;8.40;4.77;;;10.20;99.90;;;;;;5073938;28;20442;-83
2021/03/30 03:18:36;;;;;;;7.43;5.60;;;10.10;99.90;;;;;;5071774;28;20445;-85
2021/03/30 03:21:03;;;;;;;8.53;5.50;;;10.00;99.90;;;;;;5070924;28;20465;-83
2021/03/30 03:23:30;;;;;;;10.93;6.70;;;9.90;99.90;;;;;;5074606;28;20480;-83
2021/03/30 03:25:57;;;;;;;13.53;7.27;;;9.90;99.90;;;;;;5075062;28;20460;-84
2021/03/30 03:28:24;;;;;;;14.40;7.60;;;9.90;99.90;;;;;;5075006;28;20488;-83
2021/03/30 03:30:50;;;;;;;10.67;7.30;;;9.90;99.90;;;;;;5073956;28;20470;-83
2021/03/30 03:33:16;;;;;;;11.57;5.80;;;9.90;99.90;;;;;;5069597;28;20446;-84
2021/03/30 03:36:00;;;;;;;6.93;5.50;;;9.90;99.90;;;;;;5074485;28;20442;-83
2021/03/30 03:38:26;;;;;;;7.63;5.43;;;9.90;99.90;;;;;;5075916;28;20414;-83
2021/03/30 03:40:52;;;;;;;8.23;5.63;;;9.90;99.90;;;;;;5075385;28;20516;-83
2021/03/30 03:43:19;;;;;;;12.87;5.80;;;9.80;99.90;;;;;;5075674;28;20417;-84
2021/03/30 03:45:45;;;;;;;9.60;5.23;;;9.80;99.90;;;;;;5073851;28;20434;-84
2021/03/30 03:48:12;;;;;;;6.73;5.60;;;9.80;99.90;;;;;;5075886;28;20473;-83
2021/03/30 03:50:38;;;;;;;8.20;5.00;;;;;;;;;;5075138;28;20465;-83
2021/03/30 03:53:06;;;;;;;6.57;5.60;;;9.80;99.90;;;;;;5075110;28;20446;-83
2021/03/30 03:55:33;;;;;;;9.00;6.13;;;9.70;99.90;;;;;;5076182;28;20429;-83
2021/03/30 03:58:02;;;;;;;8.03;6.20;;;9.60;99.90;;;;;;5075204;28;20392;-83
2021/03/30 04:00:30;;;;;;;9.20;5.30;;;9.60;99.90;;;;;;5072584;28;20451;-83
2021/03/30 04:03:02;;;;;;;6.83;4.90;;;9.30;99.90;;;;;;5070403;28;20476;-84
2021/03/30 04:05:35;;;;;;;7.25;5.00;;;9.50;99.90;;;;;;5074529;28;20435;-83
2021/03/30 04:08:08;;;;;;;6.73;6.10;;;9.40;99.90;;;;;;5073581;28;20218;-83
2021/03/30 04:10:35;;;;;;;9.43;5.53;;;9.50;99.90;;;;;;5069217;28;20457;-83
2021/03/30 04:13:03;;;;;;;10.50;5.80;;;9.40;99.90;;;;;;5069654;28;20449;-83
2021/03/30 04:15:31;;;;;;;8.50;5.87;;;9.30;99.90;;;;;;5072046;28;20442;-85
2021/03/30 04:17:57;;;;;;;9.77;5.47;;;9.30;99.90;;;;;;5074480;28;20443;-85
2021/03/30 04:20:25;;;;;;;6.50;5.53;;;8.90;99.90;;;;;;5061029;28;20481;-85
2021/03/30 04:22:54;;;;;;;11.40;5.80;;;9.10;99.90;;;;;;5059070;28;20424;-85
2021/03/30 04:25:20;;;;;;;10.65;6.40;;;9.20;99.90;;;;;;5057383;28;20439;-85
2021/03/30 04:27:46;;;;;;;9.68;6.57;;;9.10;99.90;;;;;;5056671;28;20480;-85
2021/03/30 04:30:14;;;;;;;8.60;6.20;;;9.30;99.90;;;;;;5057051;28;20203;-85
2021/03/30 04:32:41;;;;;;;14.60;6.27;;;9.30;99.90;;;;;;5057518;28;20427;-85
2021/03/30 04:35:08;;;;;;;15.40;6.60;;;9.40;99.90;;;;;;5056375;28;20416;-85
2021/03/30 04:37:34;;;;;;;12.57;8.10;;;9.50;99.90;;;;;;5056365;28;20797;-85
2021/03/30 04:40:00;;;;;;;23.03;9.70;;;9.50;99.90;;;;;;5055861;28;20420;-85
2021/03/30 04:42:27;;;;;;;16.70;9.13;;;9.50;99.90;;;;;;5056290;28;20461;-85
2021/03/30 04:44:53;;;;;;;13.60;8.40;;;9.50;99.90;;;;;;5055034;28;20981;-85
2021/03/30 04:47:21;;;;;;;14.93;9.30;;;9.50;99.90;;;;;;5055271;28;20408;-85
2021/03/30 04:49:48;;;;;;;13.23;7.80;;;9.50;99.90;;;;;;5055833;28;20440;-86
2021/03/30 04:52:14;;;;;;;12.27;6.97;;;9.60;99.90;;;;;;5056674;28;20521;-85
2021/03/30 04:54:40;;;;;;;12.70;7.10;;;9.40;99.90;;;;;;5055521;28;20449;-85
2021/03/30 04:57:07;;;;;;;10.03;7.53;;;9.60;99.90;;;;;;5055107;28;20998;-85
2021/03/30 04:59:34;;;;;;;13.37;6.50;;;;;;;;;;5055205;28;20452;-85
2021/03/30 05:02:00;;;;;;;11.87;7.30;;;;;;;;;;5061024;28;20979;-85
2021/03/30 05:04:27;;;;;;;11.00;6.10;;;9.70;99.90;;;;;;5062161;28;20830;-84
2021/03/30 05:06:54;;;;;;;10.17;8.47;;;9.80;99.90;;;;;;5066400;28;20449;-84
2021/03/30 05:09:20;;;;;;;6.10;5.50;;;9.70;99.90;;;;;;5066521;28;20858;-85
2021/03/30 05:11:46;;;;;;;14.30;7.30;;;9.70;99.90;;;;;;5065320;28;20451;-86
2021/03/30 05:14:12;;;;;;;9.67;7.00;;;9.80;99.90;;;;;;5064020;28;20456;-85
2021/03/30 05:16:38;;;;;;;10.30;7.10;;;9.80;99.90;;;;;;5064134;28;20524;-85
2021/03/30 05:19:04;;;;;;;11.87;6.87;;;9.70;99.90;;;;;;5063901;28;20437;-85
2021/03/30 05:21:31;;;;;;;7.67;6.70;;;9.80;99.90;;;;;;5063448;28;20461;-85
2021/03/30 05:23:58;;;;;;;8.23;6.97;;;9.90;99.90;;;;;;5067038;28;20427;-85
2021/03/30 05:26:24;;;;;;;12.27;8.47;;;9.90;99.90;;;;;;5077067;28;20434;-85
2021/03/30 05:28:50;;;;;;;14.23;7.97;;;9.90;99.90;;;;;;5079949;28;20477;-85
2021/03/30 05:31:16;;;;;;;10.03;6.60;;;9.90;99.90;;;;;;5077136;28;20470;-85
2021/03/30 05:33:42;;;;;;;13.47;7.17;;;9.90;99.90;;;;;;5077359;28;20445;-85
2021/03/30 05:36:10;;;;;;;10.90;6.80;;;9.80;99.90;;;;;;5077419;28;20454;-84
2021/03/30 05:38:36;;;;;;;13.00;7.40;;;9.90;99.90;;;;;;5077869;28;20437;-85
2021/03/30 05:41:05;;;;;;;13.90;6.57;;;9.90;99.90;;;;;;5076536;28;20480;-85
2021/03/30 05:43:31;;;;;;;21.13;8.60;;;10.10;99.90;;;;;;5064820;28;20450;-84
2021/03/30 05:45:59;;;;;;;17.40;7.60;;;10.10;99.90;;;;;;5067267;28;20445;-84
2021/03/30 05:48:26;;;;;;;14.83;8.93;;;10.10;99.90;;;;;;5066297;28;20565;-84
2021/03/30 05:50:52;;;;;;;11.90;8.07;;;10.20;99.90;;;;;;5067833;28;20447;-84
2021/03/30 05:53:20;;;;;;;11.70;6.90;;;10.20;99.90;;;;;;5067755;28;20503;-85
2021/03/30 05:55:48;;;;;;;9.23;6.87;;;10.20;99.90;;;;;;5066568;28;20777;-85
2021/03/30 05:58:17;;;;;;;10.73;7.30;;;10.30;99.90;;;;;;5063900;28;20446;-85
2021/03/30 06:00:45;;;;;;;17.30;7.77;;;10.30;99.90;;;;;;5064721;28;20607;-85
2021/03/30 06:03:14;;;;;;;8.97;6.10;;;10.30;99.90;;;;;;5065074;28;20423;-85
2021/03/30 06:05:42;;;;;;;8.87;6.13;;;10.30;99.90;;;;;;5063540;28;20427;-85
2021/03/30 06:08:08;;;;;;;14.13;8.87;;;10.30;99.90;;;;;;5065320;28;20490;-85
2021/03/30 06:10:36;;;;;;;20.63;8.13;;;10.30;99.90;;;;;;5068597;28;20453;-84
2021/03/30 06:13:04;;;;;;;15.50;7.07;;;10.40;99.90;;;;;;5059593;28;20453;-85
2021/03/30 06:15:32;;;;;;;14.00;6.77;;;10.50;99.90;;;;;;5060082;28;20801;-86
2021/03/30 06:18:00;;;;;;;11.00;7.30;;;11.00;99.90;;;;;;5062285;28;20450;-83
2021/03/30 06:20:29;;;;;;;13.07;7.70;;;10.80;99.90;;;;;;5074330;28;20462;-84
2021/03/30 06:22:57;;;;;;;15.10;9.83;;;10.90;99.90;;;;;;5075877;28;20427;-84
2021/03/30 06:25:41;;;;;;;14.83;6.60;;;11.00;99.90;;;;;;5078712;28;20425;-85
2021/03/30 06:28:13;;;;;;;14.63;8.40;;;11.10;99.90;;;;;;5075246;28;20447;-85
2021/03/30 06:30:55;;;;;;;12.93;7.57;;;11.20;99.90;;;;;;5075514;28;20461;-84
2021/03/30 06:33:21;;;;;;;11.87;7.50;;;11.30;99.90;;;;;;5071540;28;20442;-85
2021/03/30 06:35:48;;;;;;;11.83;7.37;;;11.30;99.90;;;;;;5072136;28;20445;-84
2021/03/30 06:38:15;;;;;;;17.20;9.10;;;11.80;99.90;;;;;;5068616;28;20920;-84
2021/03/30 06:40:43;;;;;;;14.93;10.60;;;11.60;99.90;;;;;;5066625;28;20480;-85
2021/03/30 06:46:07;;;;;;;9.80;6.80;;;11.80;99.90;;;;;;5063545;28;20479;-85
2021/03/30 06:48:34;;;;;;;13.53;7.53;;;11.90;99.90;;;;;;5062731;28;20485;-85
2021/03/30 06:51:17;;;;;;;11.73;7.83;;;12.00;99.90;;;;;;5062286;28;20520;-85
2021/03/30 06:53:43;;;;;;;12.73;7.70;;;12.20;99.90;;;;;;5061419;28;20430;-85
2021/03/30 06:56:09;;;;;;;12.53;7.10;;;12.20;99.90;;;;;;5061403;28;20441;-85
2021/03/30 06:58:56;;;;;;;17.67;8.30;;;12.20;99.90;;;;;;5060168;28;20446;-86
2021/03/30 07:01:24;;;;;;;12.23;7.63;;;12.30;99.90;;;;;;5059310;28;20465;-86
2021/03/30 07:03:51;;;;;;;13.93;7.33;;;;;;;;;;5058911;28;20469;-85
2021/03/30 07:06:18;;;;;;;9.57;6.90;;;12.50;99.90;;;;;;5059386;28;20442;-85
2021/03/30 07:08:45;;;;;;;10.37;8.17;;;12.60;99.90;;;;;;5059889;28;20481;-85
2021/03/30 07:11:11;;;;;;;13.07;7.97;;;12.70;99.90;;;;;;5058007;28;20526;-85
2021/03/30 07:13:38;;;;;;;20.30;8.10;;;12.80;99.90;;;;;;5057808;28;20511;-85
2021/03/30 07:16:13;;;;;;;14.47;8.07;;;12.90;99.90;;;;;;5058353;28;20449;-85
2021/03/30 07:18:44;;;;;;;10.00;8.10;;;13.00;99.90;;;;;;5059460;28;20426;-86
2021/03/30 07:21:12;;;;;;;20.43;9.30;;;13.50;99.90;;;;;;5060489;28;20955;-84
2021/03/30 07:23:41;;;;;;;12.00;9.20;;;13.30;99.90;;;;;;5065014;28;20437;-84
2021/03/30 07:26:12;;;;;;;19.13;8.93;;;13.20;99.90;;;;;;5075564;28;20570;-85
2021/03/30 07:28:44;;;;;;;15.07;8.67;;;13.90;99.90;;;;;;5075149;28;20476;-85
2021/03/30 07:31:15;;;;;;;13.53;8.90;;;13.60;99.90;;;;;;5093727;22;20508;-82
2021/03/30 07:33:48;;;;;;;11.67;9.27;;;13.60;99.90;;;;;;5060386;28;20450;-84
2021/03/30 07:36:17;;;;;;;14.00;9.37;;;13.90;99.90;;;;;;5060238;28;20426;-84
2021/03/30 07:38:46;;;;;;;10.50;8.80;;;13.60;99.90;;;;;;5059646;28;20513;-82
2021/03/30 07:41:12;;;;;;;15.53;9.07;;;13.70;99.90;;;;;;5058636;28;20556;-84
2021/03/30 07:43:40;;;;;;;13.50;8.23;;;14.30;99.90;;;;;;5058490;28;20426;-84
2021/03/30 07:46:08;;;;;;;13.40;8.80;;;14.00;99.90;;;;;;5057499;28;20918;-83
2021/03/30 07:48:35;;;;;;;18.47;10.17;;;14.10;99.90;;;;;;5058055;28;20203;-82
2021/03/30 07:51:06;;;;;;;12.17;8.60;;;14.00;99.90;;;;;;5058413;28;20541;-84
2021/03/30 07:53:41;;;;;;;11.97;9.37;;;14.30;99.90;;;;;;5060062;28;20473;-84
2021/03/30 07:56:09;;;;;;;14.97;9.33;;;14.30;99.90;;;;;;5061808;28;20433;-84
2021/03/30 07:58:40;;;;;;;11.70;8.13;;;14.40;99.90;;;;;;5060193;28;20441;-83
2021/03/30 08:01:07;;;;;;;16.80;9.90;;;14.50;99.90;;;;;;5060652;28;20470;-83
2021/03/30 08:03:37;;;;;;;12.73;10.47;;;14.60;99.90;;;;;;5063163;28;20449;-83
2021/03/30 08:06:23;;;;;;;18.73;10.27;;;14.70;99.90;;;;;;5063245;28;20479;-83
2021/03/30 08:08:52;;;;;;;15.25;10.48;;;14.70;99.90;;;;;;5057883;28;20494;-83
2021/03/30 08:11:49;;;;;;;12.60;9.27;;;15.00;99.90;;;;;;5059248;28;20673;-83
2021/03/30 08:14:41;;;;;;;11.93;8.97;;;15.00;99.90;;;;;;5068107;28;20432;-82
2021/03/30 08:17:11;;;;;;;16.80;11.20;;;15.10;99.90;;;;;;5069457;28;20445;-81
2021/03/30 08:19:53;;;;;;;14.87;10.47;;;15.10;99.90;;;;;;5065261;28;20422;-86
2021/03/30 08:22:21;;;;;;;14.70;10.47;;;15.20;99.90;;;;;;5066802;28;20465;-85
2021/03/30 08:25:08;;;;;;;;;;;;;;;;;;;;;
2021/03/30 08:28:02;;;;;;;17.47;12.33;;;15.60;99.90;;;;;;5067499;28;20456;-86
2021/03/30 08:31:17;;;;;;;19.52;10.90;;;15.50;99.90;;;;;;5064075;28;20436;-86
2021/03/30 08:34:12;;;;;;;22.87;11.47;;;15.60;99.90;;;;;;5066681;28;20187;-87
2021/03/30 08:37:20;;;;;;;20.57;11.00;;;15.60;99.90;;;;;;5056085;28;20840;-87
2021/03/30 08:39:51;;;;;;;11.67;8.83;;;16.20;99.90;;;;;;5064023;28;20442;-85
2021/03/30 08:42:37;;;;;;;16.03;10.00;;;15.90;99.90;;;;;;5067892;28;20469;-84
2021/03/30 08:45:09;;;;;;;17.90;11.20;;;16.00;99.90;;;;;;5065280;28;20470;-82
2021/03/30 08:47:40;;;;;;;16.30;8.80;;;16.00;99.90;;;;;;5062373;28;20491;-84
2021/03/30 08:50:16;;;;;;;14.60;9.97;;;16.10;99.90;;;;;;5061973;28;20477;-82
2021/03/30 08:52:43;;;;;;;16.87;10.10;;;16.00;99.90;;;;;;5063413;28;20465;-84
2021/03/30 08:55:12;;;;;;;12.07;8.50;;;16.00;99.90;;;;;;5061642;28;20480;-84
2021/03/30 08:57:45;;;;;;;14.10;11.03;;;16.10;99.90;;;;;;5062846;28;20450;-85
2021/03/30 09:00:13;;;;;;;14.13;9.20;;;16.10;99.90;;;;;;5063031;28;20434;-83
2021/03/30 09:02:40;;;;;;;15.10;9.30;;;16.20;99.90;;;;;;5061929;28;20527;-84
2021/03/30 09:05:15;;;;;;;16.33;10.10;;;16.20;99.90;;;;;;5062546;28;20943;-84
2021/03/30 09:07:44;;;;;;;19.70;11.10;;;16.60;99.90;;;;;;5064893;28;20437;-84
2021/03/30 09:10:12;;;;;;;17.33;10.97;;;16.20;99.90;;;;;;5062072;28;20492;-84
2021/03/30 09:12:39;;;;;;;14.97;9.80;;;16.40;99.90;;;;;;5060813;28;20472;-84
2021/03/30 09:15:08;;;;;;;13.60;9.47;;;16.40;99.90;;;;;;5062412;28;20430;-83
2021/03/30 09:17:34;;;;;;;15.73;8.70;;;16.40;99.90;;;;;;5063280;28;20476;-83
2021/03/30 09:20:01;;;;;;;12.73;9.30;;;;;;;;;;5062008;28;20456;-83
2021/03/30 09:22:31;;;;;;;18.90;10.47;;;16.50;99.90;;;;;;5062833;28;20480;-84
2021/03/30 09:25:09;;;;;;;14.20;9.40;;;16.70;99.90;;;;;;5062642;28;20448;-83
2021/03/30 09:27:38;;;;;;;19.33;9.77;;;16.90;99.90;;;;;;5062166;28;20426;-84
2021/03/30 09:30:07;;;;;;;19.63;10.10;;;16.70;99.90;;;;;;5061420;28;20539;-84
2021/03/30 09:32:34;;;;;;;17.70;10.60;;;16.80;99.90;;;;;;5061892;28;20995;-83
2021/03/30 09:35:09;;;;;;;19.10;12.67;;;16.90;99.90;;;;;;5061986;28;20445;-83
2021/03/30 09:37:41;;;;;;;13.67;10.50;;;16.90;99.90;;;;;;5062061;28;20448;-84
2021/03/30 09:40:10;;;;;;;15.87;9.30;;;17.00;99.90;;;;;;5063801;28;20516;-83
2021/03/30 09:42:37;;;;;;;17.43;10.43;;;17.00;99.90;;;;;;5067862;28;20536;-82
2021/03/30 09:45:04;;;;;;;13.73;9.17;;;17.00;99.90;;;;;;5068679;28;20449;-84
2021/03/30 09:47:31;;;;;;;16.33;9.80;;;17.10;99.90;;;;;;5068508;28;20616;-83
2021/03/30 09:50:00;;;;;;;13.73;9.03;;;17.20;99.90;;;;;;5068014;28;20516;-83
2021/03/30 09:52:30;;;;;;;14.63;8.73;;;17.30;99.90;;;;;;5068184;28;20476;-83
2021/03/30 09:54:56;;;;;;;12.57;10.03;;;17.30;99.90;;;;;;5071490;28;20469;-82
2021/03/30 09:57:26;;;;;;;17.73;9.93;;;17.20;99.90;;;;;;5070761;28;20441;-83
2021/03/30 09:59:55;;;;;;;15.97;9.37;;;17.30;99.90;;;;;;5072404;28;20452;-83
2021/03/30 10:02:24;;;;;;;13.10;9.40;;;17.30;99.90;;;;;;5071008;28;20470;-82
2021/03/30 10:04:53;;;;;;;13.83;9.03;;;17.30;99.90;;;;;;5065586;28;20476;-83
2021/03/30 10:07:21;;;;;;;12.87;8.80;;;17.20;99.90;;;;;;5069643;28;20456;-81
2021/03/30 10:09:58;;;;;;;21.33;9.37;;;17.40;99.90;;;;;;5073439;28;20481;-81
2021/03/30 10:12:28;;;;;;;27.23;10.17;;;17.70;99.90;;;;;;5074596;28;20473;-83
2021/03/30 10:14:55;;;;;;;12.90;9.33;;;17.40;99.90;;;;;;5075974;28;20481;-82
2021/03/30 10:17:22;;;;;;;13.43;8.63;;;17.60;99.90;;;;;;5075686;28;20472;-84
2021/03/30 10:19:51;;;;;;;17.63;9.40;;;17.70;99.90;;;;;;5071620;28;20480;-82
2021/03/30 10:22:25;;;;;;;14.73;8.67;;;17.70;99.90;;;;;;5076782;28;20500;-82
2021/03/30 10:25:14;;;;;;;15.80;8.73;;;17.70;99.90;;;;;;5077637;28;20478;-82
2021/03/30 10:27:48;;;;;;;15.03;8.07;;;17.80;99.90;;;;;;5072021;28;20473;-83
2021/03/30 10:30:16;;;;;;;14.30;8.40;;;17.70;99.90;;;;;;5072040;28;20469;-84
2021/03/30 10:32:48;;;;;;;12.77;9.83;;;17.80;99.90;;;;;;5065239;28;20489;-83
2021/03/30 10:35:16;;;;;;;17.97;9.77;;;17.90;99.90;;;;;;5063321;28;20535;-82
2021/03/30 10:37:42;;;;;;;13.70;7.90;;;18.00;99.90;;;;;;5063229;28;20449;-82
2021/03/30 10:40:09;;;;;;;14.30;8.63;;;17.90;99.90;;;;;;5070364;28;20479;-82
2021/03/30 10:42:39;;;;;;;16.30;9.37;;;18.00;99.90;;;;;;5069918;28;20511;-81
2021/03/30 10:45:07;;;;;;;18.20;12.97;;;18.20;99.90;;;;;;5067960;28;20449;-82
2021/03/30 10:47:36;;;;;;;10.93;9.17;;;18.30;99.90;;;;;;5066037;28;20450;-82
2021/03/30 10:50:05;;;;;;;17.77;8.93;;;18.40;99.90;;;;;;5063417;28;20466;-83
2021/03/30 10:52:32;;;;;;;14.30;9.00;;;18.40;99.90;;;;;;5064141;28;20478;-83
2021/03/30 10:55:03;;;;;;;15.33;9.60;;;18.50;99.90;;;;;;5064429;28;20464;-84
2021/03/30 10:57:34;;;;;;;15.43;9.10;;;18.40;99.90;;;;;;5064948;28;20434;-83
2021/03/30 11:00:01;;;;;;;15.07;10.67;;;18.50;99.90;;;;;;5063113;28;20452;-84
2021/03/30 11:02:27;;;;;;;18.10;8.80;;;18.20;99.90;;;;;;5064827;28;20480;-82
2021/03/30 11:04:54;;;;;;;16.77;10.43;;;18.40;99.90;;;;;;5075337;28;20461;-82
2021/03/30 11:07:21;;;;;;;16.27;9.77;;;18.50;99.90;;;;;;5074516;28;20448;-82
2021/03/30 11:09:47;;;;;;;13.47;9.23;;;18.40;99.90;;;;;;5074281;28;20470;-81
2021/03/30 11:12:14;;;;;;;13.17;10.00;;;18.50;99.90;;;;;;5075493;28;20466;-82
2021/03/30 11:14:40;;;;;;;16.80;8.57;;;18.60;99.90;;;;;;5075211;28;20431;-81
2021/03/30 11:17:08;;;;;;;13.43;9.30;;;18.60;99.90;;;;;;5074294;28;20457;-82
2021/03/30 11:19:34;;;;;;;15.03;9.07;;;;;;;;;;5075284;28;20445;-81
2021/03/30 11:22:02;;;;;;;11.50;7.57;;;18.90;99.90;;;;;;5073813;28;20470;-82
2021/03/30 11:24:30;;;;;;;16.90;8.90;;;19.00;99.90;;;;;;5065539;28;20446;-82
2021/03/30 11:26:58;;;;;;;11.60;8.23;;;19.00;99.90;;;;;;5056016;28;20443;-82
2021/03/30 11:29:28;;;;;;;11.17;8.43;;;18.90;99.90;;;;;;5074346;28;20495;-81
2021/03/30 11:32:06;;;;;;;10.40;7.60;;;19.00;99.90;;;;;;5074423;28;20482;-81
2021/03/30 11:34:36;;;;;;;12.80;8.20;;;19.00;99.90;;;;;;5071624;28;20427;-82
2021/03/30 11:37:13;;;;;;;17.63;8.53;;;19.00;99.90;;;;;;5062907;28;20869;-84
2021/03/30 11:39:39;;;;;;;12.97;8.33;;;19.10;99.90;;;;;;5059976;28;20436;-83
2021/03/30 11:42:06;;;;;;;16.07;10.00;;;19.20;99.90;;;;;;5060516;28;20501;-83
2021/03/30 11:44:33;;;;;;;16.10;7.67;;;19.10;99.90;;;;;;5060813;28;20442;-82
2021/03/30 11:46:59;;;;;;;12.37;8.90;;;19.10;99.90;;;;;;5059784;28;20438;-83
2021/03/30 11:49:25;;;;;;;12.10;9.13;;;19.10;99.90;;;;;;5061548;28;20997;-83
2021/03/30 11:51:54;;;;;;;18.03;10.33;;;19.20;99.90;;;;;;5061541;28;20555;-83
2021/03/30 11:54:22;;;;;;;12.27;9.30;;;19.20;99.90;;;;;;5059119;28;20442;-83
2021/03/30 11:56:50;;;;;;;11.57;8.77;;;19.30;99.90;;;;;;5066233;28;20442;-83
2021/03/30 11:59:16;;;;;;;17.50;8.57;;;19.40;99.90;;;;;;5070698;28;20469;-83
2021/03/30 12:01:42;;;;;;;14.50;7.83;;;;;;;;;;5071982;28;20463;-84
2021/03/30 12:04:08;;;;;;;10.07;8.70;;;19.50;99.80;;;;;;5066498;28;20435;-84
2021/03/30 12:06:35;;;;;;;13.30;9.30;;;;;;;;;;5062052;28;20451;-83
2021/03/30 12:09:02;;;;;;;13.00;10.63;;;19.50;99.90;;;;;;5059480;28;20487;-83
2021/03/30 12:11:30;;;;;;;15.27;9.20;;;19.60;99.90;;;;;;5058730;28;20786;-83
2021/03/30 12:13:56;;;;;;;15.83;10.83;;;19.60;99.90;;;;;;5058683;28;20431;-83
2021/03/30 12:16:22;;;;;;;19.83;12.03;;;19.70;99.90;;;;;;5062028;28;20446;-82
2021/03/30 12:18:48;;;;;;;16.50;11.70;;;19.70;99.30;;;;;;5064010;28;20442;-82
2021/03/30 12:21:14;;;;;;;20.13;9.53;;;19.70;98.50;;;;;;5063091;28;20468;-82
2021/03/30 12:23:40;;;;;;;17.43;9.10;;;19.70;98.50;;;;;;5062700;28;20799;-82
2021/03/30 12:26:07;;;;;;;13.93;10.30;;;19.80;99.50;;;;;;5062969;28;20427;-82
2021/03/30 12:28:34;;;;;;;29.40;14.60;;;19.90;98.30;;;;;;5063143;28;21009;-83
2021/03/30 12:31:01;;;;;;;11.03;9.30;;;20.00;98.60;;;;;;5065299;28;20471;-82
2021/03/30 12:33:27;;;;;;;23.53;14.30;;;;;;;;;;5063973;28;20439;-83
2021/03/30 12:35:53;;;;;;;21.73;10.00;;;20.00;98.00;;;;;;5064345;28;20460;-83
2021/03/30 12:38:21;;;;;;;12.13;9.20;;;20.00;98.50;;;;;;5067110;28;20447;-81
2021/03/30 12:40:47;;;;;;;13.57;8.10;;;;;;;;;;5069028;28;20463;-82
2021/03/30 12:43:13;;;;;;;17.33;9.50;;;20.00;96.20;;;;;;5072052;28;20422;-82
2021/03/30 12:45:40;;;;;;;12.00;9.07;;;20.10;97.10;;;;;;5071077;28;20533;-82
2021/03/30 12:48:09;;;;;;;13.10;9.40;;;20.20;97.50;;;;;;5068958;28;20444;-83
2021/03/30 12:50:36;;;;;;;15.73;8.47;;;20.00;99.90;;;;;;5072645;28;20448;-80
2021/03/30 12:53:02;;;;;;;12.37;9.70;;;20.10;99.90;;;;;;5072273;28;20441;-82
2021/03/30 12:55:29;;;;;;;16.03;10.47;;;20.30;96.40;;;;;;5070689;28;20451;-83
2021/03/30 12:57:56;;;;;;;17.10;9.97;;;20.30;95.80;;;;;;5062296;28;20452;-83
2021/03/30 13:00:22;;;;;;;17.93;10.40;;;20.20;95.60;;;;;;5063525;28;20433;-83